createdAt,value
2023-03-15T00:00:47.569Z,975
2023-03-15T00:01:54.271Z,975
2023-03-15T00:03:01.028Z,975
2023-03-15T00:04:07.795Z,975
2023-03-15T00:05:14.482Z,976
2023-03-15T00:06:21.228Z,976
2023-03-15T00:07:27.927Z,976
2023-03-15T00:08:34.707Z,976
2023-03-15T00:09:41.571Z,976
2023-03-15T00:10:49.892Z,976
2023-03-15T00:11:56.568Z,976
2023-03-15T00:13:03.387Z,976
2023-03-15T00:14:10.149Z,976
2023-03-15T00:15:17.151Z,976
2023-03-15T00:16:27.211Z,976
2023-03-15T00:17:34.047Z,976
2023-03-15T00:18:41.707Z,976
2023-03-15T00:19:48.394Z,976
2023-03-15T00:20:55.137Z,976
2023-03-15T00:22:01.952Z,976
2023-03-15T00:23:12.024Z,976
2023-03-15T00:24:18.822Z,976
2023-03-15T00:25:26.706Z,976
2023-03-15T00:26:33.440Z,976
2023-03-15T00:27:40.188Z,976
2023-03-15T00:28:46.984Z,976
2023-03-15T00:29:53.844Z,976
2023-03-15T00:31:00.912Z,976
2023-03-15T00:32:10.664Z,976
2023-03-15T00:33:17.504Z,976
2023-03-15T00:34:24.299Z,976
2023-03-15T00:35:38.737Z,976
2023-03-15T00:36:45.450Z,976
2023-03-15T00:37:52.312Z,976
2023-03-15T00:38:59.123Z,976
2023-03-15T00:40:06.047Z,976
2023-03-15T00:41:14.783Z,977
2023-03-15T00:42:21.679Z,977
2023-03-15T00:43:29.420Z,977
2023-03-15T00:44:36.206Z,977
2023-03-15T00:45:43.384Z,977
2023-03-15T00:46:50.695Z,977
2023-03-15T00:47:58.534Z,977
2023-03-15T00:49:05.564Z,977
2023-03-15T00:50:13.306Z,977
2023-03-15T00:51:20.181Z,977
2023-03-15T00:52:26.991Z,977
2023-03-15T00:53:33.891Z,977
2023-03-15T00:54:40.704Z,977
2023-03-15T00:55:47.580Z,977
2023-03-15T00:56:54.414Z,977
2023-03-15T00:58:01.246Z,977
2023-03-15T00:59:08.201Z,977
2023-03-15T01:00:15.032Z,977
2023-03-15T01:01:25.759Z,977
2023-03-15T01:02:32.763Z,977
2023-03-15T01:03:39.554Z,977
2023-03-15T01:04:48.229Z,977
2023-03-15T01:05:55.141Z,977
2023-03-15T01:07:01.968Z,977
2023-03-15T01:08:08.848Z,977
2023-03-15T01:09:15.684Z,977
2023-03-15T01:10:22.498Z,977
2023-03-15T01:11:29.364Z,977
2023-03-15T01:12:36.151Z,977
2023-03-15T01:13:43.064Z,977
2023-03-15T01:14:49.784Z,977
2023-03-15T01:15:56.804Z,977
2023-03-15T01:17:07.042Z,977
2023-03-15T01:18:13.839Z,977
2023-03-15T01:19:20.639Z,977
2023-03-15T01:20:27.478Z,977
2023-03-15T01:21:34.303Z,977
2023-03-15T01:22:41.127Z,977
2023-03-15T01:23:48.824Z,977
2023-03-15T01:24:55.587Z,977
2023-03-15T01:26:03.326Z,977
2023-03-15T01:27:12.587Z,977
2023-03-15T01:28:19.541Z,977
2023-03-15T01:29:27.665Z,977
2023-03-15T01:30:34.420Z,977
2023-03-15T01:31:42.087Z,977
2023-03-15T01:32:48.844Z,977
2023-03-15T01:33:55.711Z,977
2023-03-15T01:35:02.551Z,977
2023-03-15T01:36:09.588Z,977
2023-03-15T01:37:18.026Z,977
2023-03-15T01:38:24.832Z,977
2023-03-15T01:39:31.675Z,977
2023-03-15T01:40:38.575Z,978
2023-03-15T01:41:45.470Z,978
2023-03-15T01:42:52.292Z,978
2023-03-15T01:44:07.268Z,978
2023-03-15T01:45:19.420Z,978
2023-03-15T01:46:36.623Z,978
2023-03-15T01:47:43.350Z,978
2023-03-15T01:48:50.142Z,978
2023-03-15T01:50:02.127Z,977
2023-03-15T01:51:08.927Z,977
2023-03-15T01:52:22.535Z,977
2023-03-15T01:53:29.353Z,977
2023-03-15T01:54:37.031Z,977
2023-03-15T01:55:46.482Z,977
2023-03-15T01:56:53.504Z,977
2023-03-15T01:58:05.431Z,977
2023-03-15T01:59:12.265Z,978
2023-03-15T02:00:19.451Z,977
2023-03-15T02:01:26.534Z,977
2023-03-15T02:02:33.236Z,978
2023-03-15T02:03:40.034Z,977
2023-03-15T02:04:49.907Z,978
2023-03-15T02:05:56.704Z,978
2023-03-15T02:07:03.660Z,978
2023-03-15T02:08:10.703Z,978
2023-03-15T02:09:17.492Z,978
2023-03-15T02:10:24.271Z,978
2023-03-15T02:11:31.112Z,978
2023-03-15T02:12:38.954Z,978
2023-03-15T02:13:45.838Z,978
2023-03-15T02:14:52.599Z,978
2023-03-15T02:16:01.908Z,978
2023-03-15T02:17:08.872Z,978
2023-03-15T02:18:16.652Z,978
2023-03-15T02:19:23.480Z,978
2023-03-15T02:20:40.507Z,978
2023-03-15T02:21:55.380Z,978
2023-03-15T02:23:05.279Z,978
2023-03-15T02:24:12.264Z,978
2023-03-15T02:25:26.945Z,978
2023-03-15T02:26:41.584Z,978
2023-03-15T02:27:53.612Z,978
2023-03-15T02:29:01.339Z,978
2023-03-15T02:30:08.151Z,978
2023-03-15T02:31:15.157Z,978
2023-03-15T02:32:22.570Z,978
2023-03-15T02:33:30.106Z,978
2023-03-15T02:34:47.254Z,978
2023-03-15T02:35:54.042Z,978
2023-03-15T02:37:00.820Z,978
2023-03-15T02:38:07.679Z,978
2023-03-15T02:39:15.453Z,978
2023-03-15T02:40:22.228Z,978
2023-03-15T02:41:29.040Z,978
2023-03-15T02:42:40.696Z,978
2023-03-15T02:43:47.474Z,978
2023-03-15T02:44:55.192Z,978
2023-03-15T02:46:02.112Z,978
2023-03-15T02:47:14.156Z,978
2023-03-15T02:48:26.409Z,978
2023-03-15T02:49:33.204Z,978
2023-03-15T02:50:39.940Z,978
2023-03-15T02:51:46.825Z,978
2023-03-15T02:52:53.780Z,978
2023-03-15T02:54:00.578Z,978
2023-03-15T02:55:07.378Z,978
2023-03-15T02:56:17.371Z,978
2023-03-15T02:57:24.154Z,978
2023-03-15T02:58:31.029Z,978
2023-03-15T02:59:37.843Z,978
2023-03-15T03:00:44.644Z,978
2023-03-15T03:01:51.461Z,978
2023-03-15T03:02:58.199Z,978
2023-03-15T03:04:05.112Z,978
2023-03-15T03:05:12.161Z,978
2023-03-15T03:06:18.968Z,978
2023-03-15T03:07:25.790Z,978
2023-03-15T03:08:32.616Z,978
2023-03-15T03:09:39.420Z,978
2023-03-15T03:10:46.214Z,978
2023-03-15T03:11:53.013Z,978
2023-03-15T03:12:59.786Z,978
2023-03-15T03:14:06.550Z,978
2023-03-15T03:15:13.528Z,978
2023-03-15T03:16:20.449Z,978
2023-03-15T03:17:27.404Z,978
2023-03-15T03:18:34.220Z,978
2023-03-15T03:19:41.031Z,978
2023-03-15T03:20:47.899Z,978
2023-03-15T03:21:55.013Z,978
2023-03-15T03:23:01.845Z,978
2023-03-15T03:24:09.485Z,978
2023-03-15T03:25:22.126Z,978
2023-03-15T03:26:28.891Z,978
2023-03-15T03:27:35.716Z,978
2023-03-15T03:28:42.499Z,978
2023-03-15T03:29:49.327Z,978
2023-03-15T03:30:56.371Z,978
2023-03-15T03:32:03.203Z,978
2023-03-15T03:33:10.067Z,978
2023-03-15T03:34:17.705Z,978
2023-03-15T03:35:24.536Z,978
2023-03-15T03:36:33.017Z,978
2023-03-15T03:37:39.854Z,979
2023-03-15T03:38:46.648Z,978
2023-03-15T03:39:55.248Z,979
2023-03-15T03:41:02.018Z,979
2023-03-15T03:42:08.884Z,979
2023-03-15T03:43:15.827Z,979
2023-03-15T03:44:22.946Z,979
2023-03-15T03:45:29.836Z,979
2023-03-15T03:46:38.408Z,979
2023-03-15T03:47:46.045Z,979
2023-03-15T03:48:52.848Z,979
2023-03-15T03:49:59.653Z,979
2023-03-15T03:51:06.722Z,979
2023-03-15T03:52:13.674Z,979
2023-03-15T03:53:23.918Z,979
2023-03-15T03:54:30.702Z,979
2023-03-15T03:55:37.526Z,979
2023-03-15T03:56:46.812Z,979
2023-03-15T03:57:53.605Z,979
2023-03-15T03:59:00.464Z,979
2023-03-15T04:00:07.381Z,979
2023-03-15T04:01:14.428Z,979
2023-03-15T04:02:22.151Z,979
2023-03-15T04:03:28.906Z,979
2023-03-15T04:04:35.727Z,979
2023-03-15T04:05:42.543Z,979
2023-03-15T04:06:50.251Z,979
2023-03-15T04:07:57.065Z,979
2023-03-15T04:09:03.907Z,979
2023-03-15T04:10:10.704Z,979
2023-03-15T04:11:17.653Z,979
2023-03-15T04:12:25.801Z,979
2023-03-15T04:13:32.512Z,979
2023-03-15T04:14:39.319Z,979
2023-03-15T04:15:46.200Z,979
2023-03-15T04:16:52.932Z,979
2023-03-15T04:18:00.794Z,979
2023-03-15T04:19:07.791Z,979
2023-03-15T04:20:14.604Z,979
2023-03-15T04:21:22.170Z,979
2023-03-15T04:22:29.089Z,979
2023-03-15T04:23:36.231Z,979
2023-03-15T04:24:43.186Z,979
2023-03-15T04:25:50.015Z,979
2023-03-15T04:26:56.859Z,979
2023-03-15T04:28:04.756Z,979
2023-03-15T04:29:11.501Z,979
2023-03-15T04:30:18.441Z,979
2023-03-15T04:31:25.364Z,979
2023-03-15T04:32:32.169Z,979
2023-03-15T04:33:38.942Z,979
2023-03-15T04:34:45.771Z,979
2023-03-15T04:35:52.836Z,979
2023-03-15T04:36:59.744Z,979
2023-03-15T04:38:06.595Z,979
2023-03-15T04:39:13.408Z,979
2023-03-15T04:40:20.184Z,979
2023-03-15T04:41:29.990Z,979
2023-03-15T04:42:36.792Z,979
2023-03-15T04:43:43.766Z,979
2023-03-15T04:44:50.644Z,979
2023-03-15T04:45:57.438Z,979
2023-03-15T04:47:04.376Z,979
2023-03-15T04:48:11.171Z,979
2023-03-15T04:49:18.035Z,979
2023-03-15T04:50:24.909Z,979
2023-03-15T04:51:31.709Z,979
2023-03-15T04:52:38.487Z,979
2023-03-15T04:53:45.346Z,979
2023-03-15T04:54:53.081Z,979
2023-03-15T04:56:00.514Z,979
2023-03-15T04:57:07.091Z,979
2023-03-15T04:58:13.904Z,979
2023-03-15T04:59:23.717Z,979
2023-03-15T05:00:31.383Z,979
2023-03-15T05:01:38.266Z,979
2023-03-15T05:02:45.073Z,980
2023-03-15T05:03:52.032Z,980
2023-03-15T05:04:58.842Z,980
2023-03-15T05:06:06.805Z,980
2023-03-15T05:07:14.827Z,980
2023-03-15T05:08:21.852Z,980
2023-03-15T05:09:29.826Z,980
2023-03-15T05:10:36.736Z,980
2023-03-15T05:11:44.892Z,980
2023-03-15T05:12:52.109Z,980
2023-03-15T05:13:59.339Z,980
2023-03-15T05:15:07.927Z,980
2023-03-15T05:16:14.998Z,979
2023-03-15T05:17:22.065Z,979
2023-03-15T05:18:29.086Z,980
2023-03-15T05:19:36.209Z,980
2023-03-15T05:20:43.209Z,980
2023-03-15T05:21:51.369Z,980
2023-03-15T05:23:02.061Z,979
2023-03-15T05:24:10.987Z,979
2023-03-15T05:25:17.985Z,979
2023-03-15T05:26:24.987Z,979
2023-03-15T05:27:33.425Z,979
2023-03-15T05:28:40.579Z,979
2023-03-15T05:29:47.500Z,980
2023-03-15T05:30:54.491Z,980
2023-03-15T05:32:01.488Z,980
2023-03-15T05:33:09.666Z,980
2023-03-15T05:34:16.660Z,980
2023-03-15T05:35:23.737Z,980
2023-03-15T05:36:32.471Z,980
2023-03-15T05:37:39.418Z,980
2023-03-15T05:38:46.322Z,980
2023-03-15T05:39:53.320Z,980
2023-03-15T05:41:00.368Z,980
2023-03-15T05:42:07.474Z,980
2023-03-15T05:43:15.523Z,980
2023-03-15T05:44:22.580Z,980
2023-03-15T05:45:31.530Z,980
2023-03-15T05:46:38.546Z,980
2023-03-15T05:47:46.443Z,980
2023-03-15T05:48:53.437Z,980
2023-03-15T05:50:00.514Z,980
2023-03-15T05:51:09.464Z,980
2023-03-15T05:52:16.393Z,980
2023-03-15T05:53:26.448Z,980
2023-03-15T05:54:36.261Z,980
2023-03-15T05:55:43.196Z,980
2023-03-15T05:56:50.241Z,980
2023-03-15T05:57:59.303Z,980
2023-03-15T05:59:07.228Z,980
2023-03-15T06:00:14.216Z,980
2023-03-15T06:01:21.605Z,980
2023-03-15T06:02:30.945Z,980
2023-03-15T06:03:37.998Z,980
2023-03-15T06:04:45.698Z,980
2023-03-15T06:05:52.654Z,980
2023-03-15T06:06:59.948Z,980
2023-03-15T06:08:06.922Z,980
2023-03-15T06:09:14.166Z,980
2023-03-15T06:10:21.304Z,980
2023-03-15T06:11:28.278Z,980
2023-03-15T06:12:35.305Z,981
2023-03-15T06:13:42.189Z,980
2023-03-15T06:14:49.245Z,981
2023-03-15T06:15:56.331Z,981
2023-03-15T06:17:08.541Z,981
2023-03-15T06:18:16.622Z,981
2023-03-15T06:19:23.737Z,981
2023-03-15T06:20:31.663Z,981
2023-03-15T06:21:38.636Z,981
2023-03-15T06:22:45.581Z,981
2023-03-15T06:23:52.582Z,981
2023-03-15T06:24:59.604Z,981
2023-03-15T06:26:06.605Z,981
2023-03-15T06:27:13.612Z,981
2023-03-15T06:28:20.630Z,981
2023-03-15T06:29:27.668Z,981
2023-03-15T06:30:34.851Z,981
2023-03-15T06:31:42.865Z,981
2023-03-15T06:32:49.784Z,981
2023-03-15T06:33:59.455Z,981
2023-03-15T06:35:06.465Z,981
2023-03-15T06:36:14.373Z,981
2023-03-15T06:37:32.841Z,981
2023-03-15T06:38:29.601Z,981
2023-03-15T06:39:38.450Z,981
2023-03-15T06:40:45.522Z,981
2023-03-15T06:41:52.528Z,981
2023-03-15T06:43:01.912Z,981
2023-03-15T06:44:09.081Z,981
2023-03-15T06:45:17.029Z,981
2023-03-15T06:46:26.450Z,981
2023-03-15T06:47:33.477Z,981
2023-03-15T06:48:41.460Z,981
2023-03-15T06:49:48.682Z,981
2023-03-15T06:50:55.741Z,981
2023-03-15T06:52:02.779Z,981
2023-03-15T06:53:09.826Z,981
2023-03-15T06:54:16.804Z,981
2023-03-15T06:55:23.767Z,981
2023-03-15T06:56:30.875Z,981
2023-03-15T06:57:37.890Z,981
2023-03-15T06:58:44.968Z,981
2023-03-15T06:59:51.966Z,981
2023-03-15T07:00:58.946Z,981
2023-03-15T07:02:06.870Z,981
2023-03-15T07:03:16.844Z,981
2023-03-15T07:04:23.846Z,981
2023-03-15T07:05:30.912Z,981
2023-03-15T07:06:38.778Z,981
2023-03-15T07:07:46.880Z,981
2023-03-15T07:08:53.849Z,981
2023-03-15T07:10:02.149Z,981
2023-03-15T07:11:09.391Z,981
2023-03-15T07:12:16.452Z,981
2023-03-15T07:13:23.386Z,981
2023-03-15T07:14:31.262Z,981
2023-03-15T07:15:39.358Z,981
2023-03-15T07:16:46.219Z,981
2023-03-15T07:17:53.208Z,981
2023-03-15T07:19:00.247Z,981
2023-03-15T07:20:07.286Z,981
2023-03-15T07:21:15.550Z,981
2023-03-15T07:22:23.603Z,981
2023-03-15T07:23:30.597Z,981
2023-03-15T07:24:37.584Z,981
2023-03-15T07:25:54.636Z,981
2023-03-15T07:26:53.943Z,981
2023-03-15T07:28:00.919Z,982
2023-03-15T07:29:08.024Z,982
2023-03-15T07:30:15.102Z,981
2023-03-15T07:31:22.245Z,981
2023-03-15T07:32:29.311Z,982
2023-03-15T07:33:37.248Z,982
2023-03-15T07:34:44.272Z,982
2023-03-15T07:35:51.388Z,982
2023-03-15T07:36:58.320Z,982
2023-03-15T07:38:05.371Z,982
2023-03-15T07:39:12.362Z,982
2023-03-15T07:40:19.414Z,982
2023-03-15T07:41:27.622Z,982
2023-03-15T07:42:34.586Z,982
2023-03-15T07:43:41.719Z,982
2023-03-15T07:44:48.656Z,982
2023-03-15T07:45:55.713Z,982
2023-03-15T07:47:02.827Z,982
2023-03-15T07:48:10.055Z,982
2023-03-15T07:49:17.136Z,982
2023-03-15T07:50:24.079Z,982
2023-03-15T07:51:33.203Z,982
2023-03-15T07:52:40.215Z,982
2023-03-15T07:53:50.848Z,982
2023-03-15T07:54:58.339Z,982
2023-03-15T07:56:06.335Z,982
2023-03-15T07:57:14.445Z,982
2023-03-15T07:58:21.475Z,982
2023-03-15T07:59:28.435Z,982
2023-03-15T08:00:38.727Z,982
2023-03-15T08:01:48.109Z,982
2023-03-15T08:02:55.390Z,982
2023-03-15T08:04:02.384Z,982
2023-03-15T08:05:09.870Z,982
2023-03-15T08:06:17.092Z,982
2023-03-15T08:07:24.394Z,982
2023-03-15T08:08:31.635Z,982
2023-03-15T08:09:42.670Z,982
2023-03-15T08:10:54.891Z,982
2023-03-15T08:12:03.249Z,982
2023-03-15T08:13:14.115Z,982
2023-03-15T08:14:28.975Z,982
2023-03-15T08:16:05.430Z,982
2023-03-15T08:17:12.854Z,982
2023-03-15T08:18:23.910Z,982
2023-03-15T08:19:32.927Z,982
2023-03-15T08:20:42.603Z,982
2023-03-15T08:21:52.340Z,982
2023-03-15T08:23:25.540Z,982
2023-03-15T08:24:32.607Z,982
2023-03-15T08:25:39.663Z,982
2023-03-15T08:26:48.503Z,982
2023-03-15T08:27:57.340Z,982
2023-03-15T08:29:04.565Z,982
2023-03-15T08:30:12.540Z,982
2023-03-15T08:31:21.380Z,982
2023-03-15T08:32:28.538Z,982
2023-03-15T08:33:35.740Z,982
2023-03-15T08:34:43.584Z,982
2023-03-15T08:35:50.756Z,982
2023-03-15T08:36:58.848Z,982
2023-03-15T08:38:10.003Z,982
2023-03-15T08:39:17.007Z,982
2023-03-15T08:40:27.804Z,982
2023-03-15T08:41:34.784Z,982
2023-03-15T08:42:43.319Z,982
2023-03-15T08:44:05.324Z,982
2023-03-15T08:45:12.590Z,982
2023-03-15T08:46:52.838Z,982
2023-03-15T08:48:00.082Z,982
2023-03-15T08:49:09.952Z,982
2023-03-15T08:50:14.565Z,982
2023-03-15T08:51:24.667Z,982
2023-03-15T08:52:31.647Z,982
2023-03-15T08:53:52.825Z,982
2023-03-15T08:55:00.662Z,982
2023-03-15T08:58:11.212Z,982
2023-03-15T08:59:31.624Z,983
2023-03-15T09:00:48.132Z,983
2023-03-15T09:02:32.169Z,983
2023-03-15T09:04:15.927Z,983
2023-03-15T09:05:32.940Z,983
2023-03-15T09:06:43.085Z,983
2023-03-15T09:07:50.130Z,983
2023-03-15T09:09:09.828Z,983
2023-03-15T09:10:17.763Z,983
2023-03-15T09:11:47.654Z,983
2023-03-15T09:12:55.589Z,983
2023-03-15T09:14:03.646Z,983
2023-03-15T09:15:10.688Z,983
2023-03-15T09:16:18.348Z,983
2023-03-15T09:17:28.278Z,983
2023-03-15T09:18:35.318Z,983
2023-03-15T09:19:45.019Z,983
2023-03-15T09:20:52.397Z,983
2023-03-15T09:22:10.835Z,983
2023-03-15T09:23:09.608Z,983
2023-03-15T09:24:23.099Z,983
2023-03-15T09:25:33.815Z,983
2023-03-15T09:26:40.895Z,983
2023-03-15T09:27:50.447Z,983
2023-03-15T09:28:57.538Z,983
2023-03-15T09:30:30.202Z,983
2023-03-15T09:31:39.333Z,983
2023-03-15T09:32:49.656Z,983
2023-03-15T09:34:05.736Z,983
2023-03-15T09:35:28.190Z,983
2023-03-15T09:36:39.753Z,983
2023-03-15T09:37:46.772Z,983
2023-03-15T09:38:54.584Z,983
2023-03-15T09:40:05.267Z,983
2023-03-15T09:41:30.788Z,983
2023-03-15T09:42:47.926Z,983
2023-03-15T09:44:52.332Z,983
2023-03-15T09:46:12.288Z,983
2023-03-15T09:47:30.731Z,983
2023-03-15T09:48:47.196Z,983
2023-03-15T10:01:07.242Z,983
2023-03-15T10:27:27.568Z,983
2023-03-15T11:03:32.682Z,983
2023-03-15T11:04:40.529Z,983
2023-03-15T11:05:53.032Z,983
2023-03-15T11:09:24.396Z,983
2023-03-15T13:06:46.606Z,983
2023-03-15T13:09:24.236Z,983
2023-03-15T13:10:53.450Z,983
2023-03-15T13:12:01.229Z,983
2023-03-15T13:13:09.239Z,983
2023-03-15T13:14:24.633Z,983
2023-03-15T13:15:40.662Z,983
2023-03-15T13:16:49.424Z,983
2023-03-15T13:18:10.599Z,983
2023-03-15T13:19:23.906Z,983
2023-03-15T13:20:31.176Z,983
2023-03-15T13:21:46.679Z,983
2023-03-15T13:23:12.712Z,983
2023-03-15T13:24:35.260Z,983
2023-03-15T13:25:45.658Z,983
2023-03-15T13:27:00.543Z,983
2023-03-15T13:28:07.624Z,983
2023-03-15T13:29:19.780Z,983
2023-03-15T13:30:58.503Z,983
2023-03-15T13:32:07.445Z,983
2023-03-15T13:33:18.224Z,984
2023-03-15T13:34:31.845Z,984
2023-03-15T13:35:40.092Z,984
2023-03-15T13:36:48.215Z,984
2023-03-15T13:37:57.977Z,984
2023-03-15T13:39:27.983Z,984
2023-03-15T13:40:36.081Z,984
2023-03-15T13:41:51.996Z,984
2023-03-15T13:43:05.716Z,984
2023-03-15T13:44:15.577Z,984
2023-03-15T13:45:25.690Z,984
2023-03-15T13:46:32.664Z,984
2023-03-15T13:47:41.237Z,984
2023-03-15T13:48:50.840Z,984
2023-03-15T13:50:01.001Z,984
2023-03-15T13:51:10.593Z,984
2023-03-15T13:52:30.793Z,984
2023-03-15T13:53:48.876Z,984
2023-03-15T13:54:45.742Z,984
2023-03-15T13:55:53.696Z,984
2023-03-15T13:57:00.690Z,984
2023-03-15T13:58:15.501Z,984
2023-03-15T13:59:22.620Z,984
2023-03-15T14:00:29.662Z,984
2023-03-15T14:01:39.888Z,984
2023-03-15T14:02:47.047Z,984
2023-03-15T14:04:13.368Z,984
2023-03-15T14:05:21.225Z,984
2023-03-15T14:06:31.969Z,984
2023-03-15T14:07:41.408Z,984
2023-03-15T14:08:52.538Z,984
2023-03-15T14:09:59.635Z,984
2023-03-15T14:11:16.136Z,984
2023-03-15T14:12:23.250Z,984
2023-03-15T14:13:31.211Z,984
2023-03-15T14:14:43.266Z,984
2023-03-15T14:15:57.904Z,984
2023-03-15T14:17:07.507Z,984
2023-03-15T14:18:24.598Z,984
2023-03-15T14:19:34.835Z,984
2023-03-15T14:20:48.531Z,984
2023-03-15T14:22:14.305Z,984
2023-03-15T14:23:21.641Z,984
2023-03-15T14:24:28.850Z,984
2023-03-15T14:25:45.160Z,984
2023-03-15T14:26:55.165Z,984
2023-03-15T14:28:02.569Z,984
2023-03-15T14:29:09.663Z,984
2023-03-15T14:30:19.779Z,984
2023-03-15T14:31:26.995Z,984
2023-03-15T14:32:38.089Z,984
2023-03-15T14:33:45.138Z,984
2023-03-15T14:34:57.720Z,984
2023-03-15T14:36:15.823Z,984
2023-03-15T14:37:29.383Z,984
2023-03-15T14:38:42.839Z,984
2023-03-15T14:39:50.098Z,984
2023-03-15T14:40:57.406Z,984
2023-03-15T14:42:17.074Z,984
2023-03-15T14:43:24.367Z,984
2023-03-15T14:44:31.543Z,984
2023-03-15T14:45:38.849Z,984
2023-03-15T14:46:46.246Z,984
2023-03-15T14:47:57.000Z,984
2023-03-15T14:49:05.334Z,984
2023-03-15T14:50:18.282Z,984
2023-03-15T14:51:25.441Z,984
2023-03-15T14:52:32.805Z,984
2023-03-15T14:53:39.865Z,984
2023-03-15T14:54:46.890Z,984
2023-03-15T14:55:54.008Z,984
2023-03-15T14:57:00.972Z,984
2023-03-15T14:58:07.873Z,984
2023-03-15T14:59:14.794Z,984
2023-03-15T15:00:21.775Z,984
2023-03-15T15:01:28.854Z,984
2023-03-15T15:02:36.001Z,984
2023-03-15T15:03:42.863Z,984
2023-03-15T15:04:49.880Z,984
2023-03-15T15:05:56.718Z,984
2023-03-15T15:07:03.732Z,984
2023-03-15T15:08:13.730Z,984
2023-03-15T15:09:22.141Z,984
2023-03-15T15:10:29.257Z,984
2023-03-15T15:11:36.145Z,984
2023-03-15T15:12:44.112Z,984
2023-03-15T15:13:49.985Z,984
2023-03-15T15:14:56.847Z,984
2023-03-15T15:16:06.121Z,984
2023-03-15T15:17:13.865Z,984
2023-03-15T15:18:22.625Z,984
2023-03-15T15:19:32.389Z,984
2023-03-15T15:20:39.392Z,984
2023-03-15T15:21:47.099Z,984
2023-03-15T15:22:54.798Z,984
2023-03-15T15:24:01.697Z,984
2023-03-15T15:25:10.061Z,984
2023-03-15T15:26:19.945Z,984
2023-03-15T15:27:26.845Z,984
2023-03-15T15:28:36.799Z,984
2023-03-15T15:29:40.785Z,984
2023-03-15T15:30:47.663Z,984
2023-03-15T15:31:55.396Z,984
2023-03-15T15:33:03.593Z,984
2023-03-15T15:34:11.333Z,984
2023-03-15T15:35:18.533Z,984
2023-03-15T15:36:25.556Z,984
2023-03-15T15:37:35.696Z,984
2023-03-15T15:38:42.641Z,984
2023-03-15T15:39:49.589Z,984
2023-03-15T15:41:00.654Z,984
2023-03-15T15:42:07.708Z,984
2023-03-15T15:43:14.688Z,984
2023-03-15T15:44:24.213Z,984
2023-03-15T15:45:32.926Z,984
2023-03-15T15:46:40.065Z,984
2023-03-15T15:47:47.605Z,984
2023-03-15T15:48:55.572Z,984
2023-03-15T15:50:04.304Z,984
2023-03-15T15:51:11.952Z,984
2023-03-15T15:52:22.834Z,984
2023-03-15T15:53:33.164Z,984
2023-03-15T15:54:41.117Z,984
2023-03-15T15:55:48.200Z,984
2023-03-15T15:56:55.163Z,984
2023-03-15T15:58:03.963Z,984
2023-03-15T15:59:16.660Z,984
2023-03-15T16:00:23.694Z,984
2023-03-15T16:01:34.212Z,984
2023-03-15T16:02:41.249Z,984
2023-03-15T16:03:50.193Z,984
2023-03-15T16:04:57.411Z,984
2023-03-15T16:06:04.489Z,984
2023-03-15T16:07:15.075Z,984
2023-03-15T16:08:23.968Z,984
2023-03-15T16:09:31.380Z,984
2023-03-15T16:10:41.103Z,984
2023-03-15T16:11:48.091Z,984
2023-03-15T16:12:55.161Z,984
2023-03-15T16:14:02.200Z,984
2023-03-15T16:15:10.994Z,984
2023-03-15T16:16:19.520Z,984
2023-03-15T16:17:26.467Z,984
2023-03-15T16:18:35.847Z,984
2023-03-15T16:19:43.847Z,984
2023-03-15T16:20:51.141Z,984
2023-03-15T16:22:00.165Z,984
2023-03-15T16:23:07.178Z,984
2023-03-15T16:24:17.946Z,984
2023-03-15T16:25:29.586Z,984
2023-03-15T16:26:36.563Z,984
2023-03-15T16:27:46.134Z,984
2023-03-15T16:28:55.974Z,984
2023-03-15T16:30:04.756Z,984
2023-03-15T16:31:12.251Z,984
2023-03-15T16:32:33.294Z,984
2023-03-15T16:33:29.645Z,984
2023-03-15T16:34:45.799Z,984
2023-03-15T16:35:52.942Z,984
2023-03-15T16:37:03.303Z,984
2023-03-15T16:38:11.394Z,984
2023-03-15T16:39:18.605Z,984
2023-03-15T16:40:30.650Z,984
2023-03-15T16:41:40.972Z,984
2023-03-15T16:42:49.942Z,984
2023-03-15T16:43:57.635Z,984
2023-03-15T16:45:04.770Z,984
2023-03-15T16:46:14.934Z,984
2023-03-15T16:47:24.180Z,984
2023-03-15T16:48:31.155Z,984
2023-03-15T16:49:42.544Z,984
2023-03-15T16:50:49.526Z,984
2023-03-15T16:51:59.861Z,984
2023-03-15T16:53:06.815Z,984
2023-03-15T16:54:21.958Z,984
2023-03-15T16:55:21.391Z,984
2023-03-15T16:56:28.538Z,984
2023-03-15T16:57:36.410Z,985
2023-03-15T16:58:46.250Z,984
2023-03-15T16:59:57.269Z,984
2023-03-15T17:01:04.447Z,985
2023-03-15T17:02:11.543Z,985
2023-03-15T17:03:24.695Z,985
2023-03-15T17:04:37.336Z,985
2023-03-15T17:05:44.293Z,985
2023-03-15T17:06:55.397Z,985
2023-03-15T17:08:03.435Z,985
2023-03-15T17:09:10.516Z,985
2023-03-15T17:10:20.355Z,985
2023-03-15T17:11:29.140Z,985
2023-03-15T17:12:36.579Z,985
2023-03-15T17:13:46.089Z,985
2023-03-15T17:14:53.108Z,985
2023-03-15T17:16:01.030Z,985
2023-03-15T17:17:09.321Z,985
2023-03-15T17:18:20.184Z,985
2023-03-15T17:19:31.837Z,985
2023-03-15T17:20:39.240Z,985
2023-03-15T17:21:49.163Z,985
2023-03-15T17:22:56.748Z,985
2023-03-15T17:24:03.957Z,985
2023-03-15T17:25:11.121Z,985
2023-03-15T17:26:18.292Z,985
2023-03-15T17:27:25.391Z,985
2023-03-15T17:28:37.517Z,985
2023-03-15T17:30:09.665Z,985
2023-03-15T17:31:25.217Z,985
2023-03-15T17:32:41.824Z,985
2023-03-15T17:33:48.932Z,985
2023-03-15T17:34:56.852Z,985
2023-03-15T17:36:03.902Z,985
2023-03-15T17:37:08.702Z,985
2023-03-15T17:38:19.617Z,985
2023-03-15T17:39:27.323Z,985
2023-03-15T17:40:35.563Z,985
2023-03-15T17:41:42.740Z,985
2023-03-15T17:42:49.925Z,985
2023-03-15T17:43:59.101Z,985
2023-03-15T17:45:10.560Z,985
2023-03-15T17:46:26.061Z,985
2023-03-15T17:47:34.136Z,985
2023-03-15T17:48:41.254Z,985
2023-03-15T17:49:48.336Z,985
2023-03-15T17:50:59.207Z,985
2023-03-15T17:52:06.309Z,985
2023-03-15T17:53:16.613Z,985
2023-03-15T17:54:23.673Z,985
2023-03-15T17:55:30.777Z,985
2023-03-15T17:56:38.946Z,985
2023-03-15T17:57:54.936Z,985
2023-03-15T17:58:59.575Z,985
2023-03-15T18:00:09.066Z,985
2023-03-15T18:01:21.216Z,985
2023-03-15T18:02:32.715Z,985
2023-03-15T18:03:39.384Z,985
2023-03-15T18:04:46.412Z,985
2023-03-15T18:05:54.504Z,985
2023-03-15T18:07:01.557Z,985
2023-03-15T18:08:08.613Z,985
2023-03-15T18:09:20.877Z,985
2023-03-15T18:10:28.472Z,985
2023-03-15T18:11:47.506Z,985
2023-03-15T18:13:20.865Z,985
2023-03-15T18:14:28.083Z,985
2023-03-15T18:15:35.334Z,985
2023-03-15T18:16:44.361Z,985
2023-03-15T18:17:51.760Z,985
2023-03-15T18:19:03.160Z,985
2023-03-15T18:20:12.833Z,985
2023-03-15T18:21:20.057Z,985
2023-03-15T18:22:27.178Z,985
2023-03-15T18:23:34.288Z,985
2023-03-15T18:24:41.314Z,985
2023-03-15T18:25:48.626Z,985
2023-03-15T18:26:55.997Z,985
2023-03-15T18:28:04.198Z,985
2023-03-15T18:29:12.215Z,985
2023-03-15T18:30:19.363Z,985
2023-03-15T18:31:27.497Z,985
2023-03-15T18:32:41.014Z,985
2023-03-15T18:33:50.998Z,985
2023-03-15T18:35:02.035Z,985
2023-03-15T18:36:10.404Z,985
2023-03-15T18:37:17.384Z,985
2023-03-15T18:39:51.436Z,985
2023-03-15T18:41:47.238Z,985
2023-03-15T18:42:58.284Z,985
2023-03-15T18:44:05.447Z,985
2023-03-15T18:45:12.789Z,985
2023-03-15T18:46:20.290Z,985
2023-03-15T18:47:30.387Z,985
2023-03-15T18:48:40.949Z,985
2023-03-15T18:49:45.539Z,985
2023-03-15T18:50:52.575Z,985
2023-03-15T18:52:00.093Z,985
2023-03-15T18:53:07.228Z,985
2023-03-15T18:54:14.297Z,985
2023-03-15T18:55:26.411Z,985
2023-03-15T18:56:33.813Z,985
2023-03-15T18:57:50.826Z,985
2023-03-15T18:58:57.848Z,985
2023-03-15T19:00:05.222Z,985
2023-03-15T19:01:13.272Z,985
2023-03-15T19:02:23.307Z,985
2023-03-15T19:03:30.326Z,985
2023-03-15T19:04:37.420Z,985
2023-03-15T19:05:44.447Z,985